UAL1778 KORD-KALB
Flight info
| Callsign | UAL1778 |
|---|---|
| Flight time | 1h 31m |
| Altitude | 35000 |
| Route | EBAKE WISMO POSTS PADDE SVM DKK ALB |
| Aircraft | A319/M-SDE3FGHIRWY/LB1 |
Departure
| Time | 2026-04-20 18:32 |
|---|---|
| Airport | Chicago O'Hare International Airport (KORD) |
Arrival
| Time | 2026-04-20 20:04 |
|---|---|
| Airport | Albany International Airport (KALB) |
| Time | Latitude | Longitude | Altitude | Speed | Heading |
|---|---|---|---|---|---|
| 2026-04-20 18:03 | 41.98113 | -87.91008 | 665 ft | 0 kts | 152° |
| 2026-04-20 18:06 | 41.98118 | -87.91011 | 665 ft | 4 kts | 153° |
| 2026-04-20 18:06 | 41.98141 | -87.91029 | 665 ft | 4 kts | 147° |
| 2026-04-20 18:07 | 41.98165 | -87.91046 | 665 ft | 4 kts | 170° |
| 2026-04-20 18:07 | 41.98183 | -87.91041 | 664 ft | 1 kts | 234° |
| 2026-04-20 18:07 | 41.98184 | -87.91041 | 664 ft | 0 kts | 234° |
| 2026-04-20 18:11 | 41.98183 | -87.91041 | 664 ft | 0 kts | 234° |
| 2026-04-20 18:12 | 41.98175 | -87.91056 | 665 ft | 3 kts | 233° |
| 2026-04-20 18:12 | 41.98155 | -87.91092 | 666 ft | 6 kts | 232° |
| 2026-04-20 18:12 | 41.98115 | -87.91133 | 667 ft | 9 kts | 210° |
| 2026-04-20 18:12 | 41.98051 | -87.91174 | 667 ft | 12 kts | 206° |
| 2026-04-20 18:13 | 41.97962 | -87.91231 | 664 ft | 16 kts | 205° |
| 2026-04-20 18:13 | 41.97849 | -87.91284 | 667 ft | 19 kts | 186° |
| 2026-04-20 18:13 | 41.97715 | -87.91254 | 669 ft | 21 kts | 157° |
| 2026-04-20 18:13 | 41.97587 | -87.91148 | 670 ft | 24 kts | 143° |
| 2026-04-20 18:14 | 41.97490 | -87.91052 | 668 ft | 7 kts | 143° |
| 2026-04-20 18:14 | 41.97447 | -87.91004 | 672 ft | 9 kts | 133° |
| 2026-04-20 18:14 | 41.97398 | -87.90932 | 670 ft | 12 kts | 133° |
| 2026-04-20 18:14 | 41.97347 | -87.90860 | 670 ft | 6 kts | 133° |
| 2026-04-20 18:15 | 41.97341 | -87.90851 | 670 ft | 0 kts | 133° |
| 2026-04-20 18:15 | 41.97338 | -87.90848 | 670 ft | 3 kts | 133° |
| 2026-04-20 18:15 | 41.97312 | -87.90810 | 668 ft | 8 kts | 133° |
| 2026-04-20 18:16 | 41.97247 | -87.90771 | 670 ft | 12 kts | 169° |
| 2026-04-20 18:16 | 41.97164 | -87.90713 | 668 ft | 16 kts | 119° |
| 2026-04-20 18:16 | 41.97168 | -87.90557 | 666 ft | 16 kts | 43° |
| 2026-04-20 18:16 | 41.97210 | -87.90464 | 668 ft | 12 kts | 76° |
| 2026-04-20 18:17 | 41.97221 | -87.90340 | 668 ft | 14 kts | 85° |
| 2026-04-20 18:17 | 41.97230 | -87.90194 | 668 ft | 18 kts | 85° |
| 2026-04-20 18:17 | 41.97242 | -87.90017 | 668 ft | 20 kts | 85° |
| 2026-04-20 18:17 | 41.97240 | -87.89838 | 668 ft | 20 kts | 69° |
| 2026-04-20 18:18 | 41.97234 | -87.89641 | 666 ft | 24 kts | 112° |
| 2026-04-20 18:18 | 41.97199 | -87.89424 | 666 ft | 25 kts | 98° |
| 2026-04-20 18:18 | 41.97198 | -87.89175 | 662 ft | 29 kts | 89° |
| 2026-04-20 18:18 | 41.97169 | -87.88896 | 660 ft | 32 kts | 137° |
| 2026-04-20 18:19 | 41.97037 | -87.88674 | 658 ft | 10 kts | 91° |
| 2026-04-20 18:19 | 41.97039 | -87.88654 | 658 ft | 0 kts | 85° |
| 2026-04-20 18:28 | 41.97040 | -87.88644 | 658 ft | 2 kts | 85° |
| 2026-04-20 18:28 | 41.97041 | -87.88619 | 658 ft | 4 kts | 85° |
| 2026-04-20 18:28 | 41.97043 | -87.88577 | 658 ft | 6 kts | 85° |
| 2026-04-20 18:28 | 41.97047 | -87.88514 | 659 ft | 8 kts | 86° |
| 2026-04-20 18:29 | 41.97034 | -87.88438 | 659 ft | 10 kts | 131° |
| 2026-04-20 18:29 | 41.96959 | -87.88431 | 658 ft | 13 kts | 198° |
| 2026-04-20 18:29 | 41.96907 | -87.88512 | 659 ft | 0 kts | 257° |
| 2026-04-20 18:30 | 41.96905 | -87.88531 | 659 ft | 5 kts | 262° |
| 2026-04-20 18:30 | 41.96902 | -87.88562 | 658 ft | 2 kts | 262° |
| 2026-04-20 18:30 | 41.96901 | -87.88570 | 658 ft | 8 kts | 262° |
| 2026-04-20 18:31 | 41.96900 | -87.88647 | 658 ft | 19 kts | 271° |
| 2026-04-20 18:31 | 41.96901 | -87.88702 | 658 ft | 8 kts | 272° |
| 2026-04-20 18:31 | 41.96901 | -87.88704 | 658 ft | 5 kts | 272° |
| 2026-04-20 18:32 | 41.96898 | -87.88971 | 659 ft | 72 kts | 268° |
| 2026-04-20 18:32 | 41.96892 | -87.90052 | 675 ft | 156 kts | 269° |
| 2026-04-20 18:32 | 41.96899 | -87.91560 | 1318 ft | 162 kts | 267° |
| 2026-04-20 18:32 | 41.96898 | -87.92583 | 1903 ft | 161 kts | 266° |
| 2026-04-20 18:33 | 41.96894 | -87.94092 | 2706 ft | 172 kts | 267° |
| 2026-04-20 18:33 | 41.96880 | -87.95797 | 3200 ft | 194 kts | 266° |
| 2026-04-20 18:33 | 41.96858 | -87.97739 | 3612 ft | 216 kts | 267° |
| 2026-04-20 18:33 | 41.96892 | -87.99883 | 4102 ft | 245 kts | 278° |
| 2026-04-20 18:34 | 41.97622 | -88.01980 | 4890 ft | 261 kts | 309° |
| 2026-04-20 18:34 | 41.99108 | -88.03401 | 5953 ft | 268 kts | 338° |
| 2026-04-20 18:34 | 42.00962 | -88.03779 | 7030 ft | 273 kts | 1° |
| 2026-04-20 18:34 | 42.02816 | -88.03168 | 8058 ft | 279 kts | 24° |
| 2026-04-20 18:35 | 42.04343 | -88.01529 | 9046 ft | 287 kts | 51° |
| 2026-04-20 18:35 | 42.05233 | -87.99103 | 9982 ft | 294 kts | 70° |
| 2026-04-20 18:35 | 42.05894 | -87.96411 | 10517 ft | 315 kts | 69° |
| 2026-04-20 18:35 | 42.06609 | -87.93507 | 10856 ft | 338 kts | 68° |
| 2026-04-20 18:36 | 42.07364 | -87.90446 | 11438 ft | 350 kts | 68° |
| 2026-04-20 18:36 | 42.08143 | -87.87305 | 12186 ft | 356 kts | 67° |
| 2026-04-20 18:36 | 42.08932 | -87.84131 | 12935 ft | 361 kts | 66° |
| 2026-04-20 18:36 | 42.09737 | -87.80901 | 13684 ft | 365 kts | 66° |
| 2026-04-20 18:37 | 42.10550 | -87.77639 | 14402 ft | 370 kts | 66° |
| 2026-04-20 18:37 | 42.11372 | -87.74331 | 15096 ft | 374 kts | 65° |
| 2026-04-20 18:37 | 42.12198 | -87.70987 | 15770 ft | 379 kts | 65° |
| 2026-04-20 18:37 | 42.13032 | -87.67602 | 16443 ft | 383 kts | 65° |
| 2026-04-20 18:38 | 42.13875 | -87.64169 | 17107 ft | 387 kts | 65° |
| 2026-04-20 18:38 | 42.14726 | -87.60709 | 17745 ft | 391 kts | 65° |
| 2026-04-20 18:38 | 42.15587 | -87.57207 | 18382 ft | 396 kts | 65° |
| 2026-04-20 18:38 | 42.16458 | -87.53666 | 19018 ft | 400 kts | 65° |
| 2026-04-20 18:39 | 42.17334 | -87.50097 | 19647 ft | 403 kts | 65° |
| 2026-04-20 18:39 | 42.18216 | -87.46491 | 20267 ft | 407 kts | 65° |
| 2026-04-20 18:39 | 42.19104 | -87.42851 | 20880 ft | 411 kts | 64° |
| 2026-04-20 18:39 | 42.19998 | -87.39176 | 21473 ft | 414 kts | 64° |
| 2026-04-20 18:40 | 42.20898 | -87.35475 | 22059 ft | 417 kts | 64° |
| 2026-04-20 18:40 | 42.21793 | -87.31790 | 22592 ft | 420 kts | 64° |
| 2026-04-20 18:40 | 42.22704 | -87.28034 | 23102 ft | 424 kts | 64° |
| 2026-04-20 18:40 | 42.23622 | -87.24239 | 23601 ft | 426 kts | 64° |
| 2026-04-20 18:41 | 42.24547 | -87.20426 | 24098 ft | 429 kts | 64° |
| 2026-04-20 18:41 | 42.25457 | -87.16675 | 24563 ft | 432 kts | 64° |
| 2026-04-20 18:41 | 42.26393 | -87.12809 | 25043 ft | 435 kts | 64° |
| 2026-04-20 18:41 | 42.27326 | -87.08914 | 25509 ft | 438 kts | 65° |
| 2026-04-20 18:42 | 42.27974 | -87.04827 | 25947 ft | 452 kts | 75° |
| 2026-04-20 18:42 | 42.28186 | -87.00558 | 26405 ft | 459 kts | 79° |
| 2026-04-20 18:42 | 42.28350 | -86.96242 | 26849 ft | 461 kts | 79° |
| 2026-04-20 18:42 | 42.28524 | -86.91916 | 27297 ft | 463 kts | 79° |
| 2026-04-20 18:43 | 42.28702 | -86.87563 | 27710 ft | 465 kts | 78° |
| 2026-04-20 18:43 | 42.28882 | -86.83195 | 28116 ft | 467 kts | 78° |
| 2026-04-20 18:43 | 42.29054 | -86.78973 | 28498 ft | 470 kts | 78° |
| 2026-04-20 18:43 | 42.29232 | -86.74544 | 28888 ft | 472 kts | 78° |
| 2026-04-20 18:44 | 42.29406 | -86.70111 | 29281 ft | 474 kts | 78° |
| 2026-04-20 18:44 | 42.29576 | -86.65653 | 29650 ft | 476 kts | 77° |
| 2026-04-20 18:44 | 42.29745 | -86.61182 | 29998 ft | 478 kts | 77° |
| 2026-04-20 18:44 | 42.29912 | -86.56688 | 30347 ft | 480 kts | 77° |
| 2026-04-20 18:45 | 42.30074 | -86.52163 | 30674 ft | 482 kts | 77° |
| 2026-04-20 18:45 | 42.30236 | -86.47638 | 30978 ft | 485 kts | 77° |
| 2026-04-20 18:45 | 42.30399 | -86.43088 | 31299 ft | 486 kts | 77° |
| 2026-04-20 18:45 | 42.30563 | -86.38535 | 31721 ft | 485 kts | 77° |
| 2026-04-20 18:46 | 42.30724 | -86.33984 | 32152 ft | 484 kts | 77° |
| 2026-04-20 18:46 | 42.30880 | -86.29498 | 32564 ft | 484 kts | 77° |
| 2026-04-20 18:46 | 42.31034 | -86.24971 | 32970 ft | 483 kts | 77° |
| 2026-04-20 18:46 | 42.31183 | -86.20547 | 33384 ft | 482 kts | 77° |
| 2026-04-20 18:47 | 42.31335 | -86.16027 | 33822 ft | 480 kts | 77° |
| 2026-04-20 18:47 | 42.31486 | -86.11527 | 34233 ft | 480 kts | 77° |
| 2026-04-20 18:47 | 42.31608 | -86.07017 | 34638 ft | 481 kts | 79° |
| 2026-04-20 18:47 | 42.31635 | -86.02485 | 34984 ft | 484 kts | 81° |
| 2026-04-20 18:48 | 42.31585 | -85.97923 | 35306 ft | 487 kts | 82° |
| 2026-04-20 18:48 | 42.31492 | -85.93349 | 35392 ft | 487 kts | 83° |
| 2026-04-20 18:48 | 42.31283 | -85.84208 | 35400 ft | 486 kts | 83° |
| 2026-04-20 18:49 | 42.31131 | -85.75078 | 35402 ft | 486 kts | 82° |
| 2026-04-20 18:49 | 42.31030 | -85.66457 | 35404 ft | 485 kts | 82° |
| 2026-04-20 18:50 | 42.30917 | -85.57335 | 35404 ft | 485 kts | 82° |
| 2026-04-20 18:50 | 42.30789 | -85.48227 | 35403 ft | 485 kts | 82° |
| 2026-04-20 18:51 | 42.30644 | -85.39113 | 35403 ft | 485 kts | 83° |
| 2026-04-20 18:51 | 42.30487 | -85.30079 | 35406 ft | 485 kts | 83° |
| 2026-04-20 18:52 | 42.30328 | -85.21028 | 35403 ft | 485 kts | 83° |
| 2026-04-20 18:52 | 42.30170 | -85.11914 | 35406 ft | 486 kts | 83° |
| 2026-04-20 18:53 | 42.29996 | -85.02900 | 35408 ft | 486 kts | 83° |
| 2026-04-20 18:53 | 42.29790 | -84.93674 | 35402 ft | 486 kts | 84° |
| 2026-04-20 18:54 | 42.29560 | -84.84558 | 35400 ft | 486 kts | 84° |
| 2026-04-20 18:54 | 42.29326 | -84.75503 | 35394 ft | 486 kts | 84° |
| 2026-04-20 18:55 | 42.29095 | -84.66380 | 35393 ft | 486 kts | 84° |
| 2026-04-20 18:55 | 42.28856 | -84.57254 | 35396 ft | 486 kts | 84° |
| 2026-04-20 18:56 | 42.28699 | -84.48145 | 35398 ft | 481 kts | 79° |
| 2026-04-20 18:56 | 42.29726 | -84.39365 | 35401 ft | 471 kts | 70° |
| 2026-04-20 18:57 | 42.30976 | -84.30716 | 35402 ft | 472 kts | 71° |
| 2026-04-20 18:57 | 42.32212 | -84.22061 | 35400 ft | 472 kts | 71° |
| 2026-04-20 18:58 | 42.33432 | -84.13343 | 35398 ft | 472 kts | 71° |
| 2026-04-20 18:58 | 42.34643 | -84.04622 | 35396 ft | 472 kts | 71° |
| 2026-04-20 18:59 | 42.35853 | -83.95903 | 35397 ft | 472 kts | 71° |
| 2026-04-20 18:59 | 42.37066 | -83.87162 | 35392 ft | 473 kts | 71° |
| 2026-04-20 19:00 | 42.38266 | -83.78472 | 35388 ft | 473 kts | 71° |
| 2026-04-20 19:00 | 42.39468 | -83.69673 | 35389 ft | 474 kts | 72° |
| 2026-04-20 19:01 | 42.40655 | -83.60906 | 35389 ft | 475 kts | 72° |
| 2026-04-20 19:01 | 42.41150 | -83.51885 | 35392 ft | 482 kts | 80° |
| 2026-04-20 19:02 | 42.41478 | -83.42825 | 35393 ft | 482 kts | 80° |
| 2026-04-20 19:02 | 42.41802 | -83.33746 | 35394 ft | 482 kts | 80° |
| 2026-04-20 19:03 | 42.42115 | -83.24737 | 35393 ft | 482 kts | 80° |
| 2026-04-20 19:03 | 42.42435 | -83.15613 | 35396 ft | 483 kts | 80° |
| 2026-04-20 19:04 | 42.42744 | -83.06531 | 35395 ft | 483 kts | 81° |
| 2026-04-20 19:04 | 42.43036 | -82.97508 | 35397 ft | 483 kts | 81° |
| 2026-04-20 19:05 | 42.43325 | -82.88429 | 35400 ft | 484 kts | 81° |
| 2026-04-20 19:05 | 42.43608 | -82.79404 | 35394 ft | 484 kts | 81° |
| 2026-04-20 19:06 | 42.43878 | -82.70293 | 35394 ft | 485 kts | 81° |
| 2026-04-20 19:06 | 42.44147 | -82.61175 | 35388 ft | 485 kts | 81° |
| 2026-04-20 19:07 | 42.44412 | -82.52047 | 35388 ft | 486 kts | 81° |
| 2026-04-20 19:07 | 42.44672 | -82.42904 | 35388 ft | 486 kts | 82° |
| 2026-04-20 19:08 | 42.45036 | -82.29181 | 35394 ft | 487 kts | 82° |
| 2026-04-20 19:09 | 42.45271 | -82.20014 | 35399 ft | 487 kts | 82° |
| 2026-04-20 19:09 | 42.45512 | -82.10851 | 35400 ft | 487 kts | 82° |
| 2026-04-20 19:10 | 42.45737 | -82.01735 | 35401 ft | 488 kts | 82° |
| 2026-04-20 19:10 | 42.45948 | -81.92547 | 35400 ft | 488 kts | 82° |
| 2026-04-20 19:11 | 42.46156 | -81.83363 | 35402 ft | 488 kts | 82° |
| 2026-04-20 19:11 | 42.46357 | -81.74169 | 35404 ft | 488 kts | 83° |
| 2026-04-20 19:12 | 42.46551 | -81.64972 | 35403 ft | 489 kts | 83° |
| 2026-04-20 19:12 | 42.46744 | -81.55773 | 35404 ft | 489 kts | 83° |
| 2026-04-20 19:13 | 42.46924 | -81.46567 | 35407 ft | 489 kts | 83° |
| 2026-04-20 19:13 | 42.47093 | -81.37369 | 35408 ft | 489 kts | 83° |
| 2026-04-20 19:14 | 42.47259 | -81.28164 | 35409 ft | 489 kts | 83° |
| 2026-04-20 19:14 | 42.47418 | -81.18972 | 35412 ft | 489 kts | 84° |
| 2026-04-20 19:15 | 42.47565 | -81.09763 | 35410 ft | 489 kts | 84° |
| 2026-04-20 19:15 | 42.47711 | -81.00557 | 35404 ft | 489 kts | 84° |
| 2026-04-20 19:16 | 42.47845 | -80.91385 | 35403 ft | 489 kts | 84° |
| 2026-04-20 19:16 | 42.47971 | -80.82173 | 35401 ft | 489 kts | 85° |
| 2026-04-20 19:17 | 42.48098 | -80.72961 | 35399 ft | 489 kts | 85° |
| 2026-04-20 19:17 | 42.48209 | -80.63802 | 35398 ft | 490 kts | 85° |
| 2026-04-20 19:18 | 42.48323 | -80.54619 | 35396 ft | 490 kts | 85° |
| 2026-04-20 19:18 | 42.48432 | -80.45354 | 35395 ft | 490 kts | 85° |
| 2026-04-20 19:19 | 42.48518 | -80.36113 | 35393 ft | 490 kts | 86° |
| 2026-04-20 19:19 | 42.48589 | -80.26878 | 35390 ft | 491 kts | 86° |
| 2026-04-20 19:20 | 42.48667 | -80.17625 | 35390 ft | 491 kts | 86° |
| 2026-04-20 19:20 | 42.48739 | -80.08361 | 35389 ft | 492 kts | 86° |
| 2026-04-20 19:21 | 42.48811 | -79.99116 | 35391 ft | 492 kts | 86° |
| 2026-04-20 19:21 | 42.48866 | -79.89849 | 35386 ft | 492 kts | 86° |
| 2026-04-20 19:22 | 42.48915 | -79.80575 | 35385 ft | 492 kts | 86° |
| 2026-04-20 19:22 | 42.48948 | -79.71311 | 35387 ft | 492 kts | 87° |
| 2026-04-20 19:23 | 42.48971 | -79.62039 | 35389 ft | 492 kts | 87° |
| 2026-04-20 19:23 | 42.49005 | -79.52781 | 35389 ft | 492 kts | 87° |
| 2026-04-20 19:24 | 42.49031 | -79.43510 | 35391 ft | 492 kts | 87° |
| 2026-04-20 19:24 | 42.49034 | -79.34316 | 35390 ft | 491 kts | 87° |
| 2026-04-20 19:25 | 42.49044 | -79.25054 | 35391 ft | 491 kts | 87° |
| 2026-04-20 19:25 | 42.49124 | -79.15800 | 35392 ft | 491 kts | 86° |
| 2026-04-20 19:26 | 42.49224 | -79.08105 | 35391 ft | 492 kts | 87° |
| 2026-04-20 19:26 | 42.49330 | -78.98844 | 35389 ft | 492 kts | 87° |
| 2026-04-20 19:27 | 42.49408 | -78.89596 | 35379 ft | 492 kts | 88° |
| 2026-04-20 19:27 | 42.49462 | -78.80310 | 35373 ft | 492 kts | 88° |
| 2026-04-20 19:28 | 42.49508 | -78.71063 | 35364 ft | 492 kts | 88° |
| 2026-04-20 19:28 | 42.49564 | -78.61784 | 35343 ft | 492 kts | 88° |
| 2026-04-20 19:29 | 42.49614 | -78.52511 | 35327 ft | 493 kts | 88° |
| 2026-04-20 19:29 | 42.49647 | -78.43233 | 35319 ft | 493 kts | 88° |
| 2026-04-20 19:30 | 42.49671 | -78.33932 | 35316 ft | 493 kts | 89° |
| 2026-04-20 19:30 | 42.49686 | -78.24647 | 35309 ft | 493 kts | 89° |
| 2026-04-20 19:31 | 42.49703 | -78.15353 | 35312 ft | 493 kts | 89° |
| 2026-04-20 19:31 | 42.49712 | -78.06052 | 35312 ft | 494 kts | 89° |
| 2026-04-20 19:32 | 42.49712 | -77.96793 | 35317 ft | 494 kts | 89° |
| 2026-04-20 19:32 | 42.49705 | -77.87418 | 35324 ft | 495 kts | 90° |
| 2026-04-20 19:33 | 42.49689 | -77.78194 | 35331 ft | 495 kts | 90° |
| 2026-04-20 19:33 | 42.49663 | -77.68875 | 35339 ft | 495 kts | 90° |
| 2026-04-20 19:34 | 42.49633 | -77.59546 | 35342 ft | 495 kts | 90° |
| 2026-04-20 19:34 | 42.49591 | -77.50224 | 35349 ft | 495 kts | 90° |
| 2026-04-20 19:35 | 42.49544 | -77.40904 | 35346 ft | 495 kts | 90° |
| 2026-04-20 19:35 | 42.49492 | -77.31562 | 35347 ft | 495 kts | 90° |
| 2026-04-20 19:36 | 42.49437 | -77.22294 | 35338 ft | 494 kts | 90° |
| 2026-04-20 19:36 | 42.49368 | -77.12980 | 35340 ft | 494 kts | 90° |
| 2026-04-20 19:37 | 42.49284 | -77.03682 | 35339 ft | 493 kts | 91° |
| 2026-04-20 19:37 | 42.49198 | -76.94378 | 35120 ft | 494 kts | 91° |
| 2026-04-20 19:37 | 42.49158 | -76.89731 | 34871 ft | 493 kts | 91° |
| 2026-04-20 19:38 | 42.49118 | -76.85143 | 34626 ft | 493 kts | 91° |
| 2026-04-20 19:38 | 42.49075 | -76.80537 | 34378 ft | 493 kts | 91° |
| 2026-04-20 19:38 | 42.49023 | -76.75829 | 34125 ft | 493 kts | 91° |
| 2026-04-20 19:38 | 42.48967 | -76.71245 | 33879 ft | 493 kts | 91° |
| 2026-04-20 19:39 | 42.48908 | -76.66601 | 33630 ft | 493 kts | 91° |
| 2026-04-20 19:39 | 42.48847 | -76.61968 | 33379 ft | 493 kts | 91° |
| 2026-04-20 19:39 | 42.48787 | -76.57320 | 33130 ft | 493 kts | 91° |
| 2026-04-20 19:39 | 42.48730 | -76.52673 | 32880 ft | 493 kts | 91° |
| 2026-04-20 19:40 | 42.48672 | -76.48037 | 32631 ft | 493 kts | 91° |
| 2026-04-20 19:40 | 42.48613 | -76.43392 | 32381 ft | 493 kts | 91° |
| 2026-04-20 19:40 | 42.48551 | -76.38752 | 32132 ft | 493 kts | 91° |
| 2026-04-20 19:40 | 42.48481 | -76.34112 | 31883 ft | 493 kts | 91° |
| 2026-04-20 19:41 | 42.48407 | -76.29463 | 31633 ft | 493 kts | 91° |
| 2026-04-20 19:41 | 42.48333 | -76.24886 | 31385 ft | 493 kts | 91° |
| 2026-04-20 19:41 | 42.48259 | -76.20243 | 31135 ft | 493 kts | 91° |
| 2026-04-20 19:41 | 42.48185 | -76.15604 | 30881 ft | 493 kts | 91° |
| 2026-04-20 19:42 | 42.48110 | -76.10956 | 30633 ft | 493 kts | 91° |
| 2026-04-20 19:42 | 42.48035 | -76.06321 | 30383 ft | 493 kts | 91° |
| 2026-04-20 19:42 | 42.47956 | -76.01687 | 30134 ft | 491 kts | 91° |
| 2026-04-20 19:42 | 42.47873 | -75.97070 | 29883 ft | 489 kts | 92° |
| 2026-04-20 19:43 | 42.47787 | -75.92474 | 29633 ft | 488 kts | 92° |
| 2026-04-20 19:43 | 42.47704 | -75.87933 | 29384 ft | 485 kts | 92° |
| 2026-04-20 19:43 | 42.47620 | -75.83376 | 29134 ft | 483 kts | 92° |
| 2026-04-20 19:43 | 42.47535 | -75.78845 | 28884 ft | 480 kts | 91° |
| 2026-04-20 19:44 | 42.47447 | -75.74326 | 28634 ft | 478 kts | 92° |
| 2026-04-20 19:44 | 42.47357 | -75.69838 | 28383 ft | 475 kts | 92° |
| 2026-04-20 19:44 | 42.47266 | -75.65379 | 28133 ft | 473 kts | 92° |
| 2026-04-20 19:44 | 42.47172 | -75.60930 | 27883 ft | 471 kts | 92° |
| 2026-04-20 19:45 | 42.47077 | -75.56514 | 27632 ft | 468 kts | 92° |
| 2026-04-20 19:45 | 42.46980 | -75.52121 | 27384 ft | 466 kts | 92° |
| 2026-04-20 19:45 | 42.46882 | -75.47744 | 27133 ft | 463 kts | 92° |
| 2026-04-20 19:45 | 42.46786 | -75.43403 | 26881 ft | 461 kts | 92° |
| 2026-04-20 19:46 | 42.46691 | -75.39138 | 26636 ft | 458 kts | 92° |
| 2026-04-20 19:46 | 42.46596 | -75.34934 | 26390 ft | 456 kts | 92° |
| 2026-04-20 19:46 | 42.46496 | -75.30641 | 26124 ft | 453 kts | 92° |
| 2026-04-20 19:46 | 42.46393 | -75.26396 | 25474 ft | 450 kts | 92° |
| 2026-04-20 19:47 | 42.46289 | -75.22187 | 24786 ft | 444 kts | 92° |
| 2026-04-20 19:47 | 42.46188 | -75.18059 | 24142 ft | 434 kts | 91° |
| 2026-04-20 19:47 | 42.46090 | -75.14018 | 23517 ft | 425 kts | 92° |
| 2026-04-20 19:47 | 42.45989 | -75.10060 | 22911 ft | 417 kts | 92° |
| 2026-04-20 19:48 | 42.45889 | -75.06166 | 22339 ft | 410 kts | 92° |
| 2026-04-20 19:48 | 42.45789 | -75.02320 | 21774 ft | 408 kts | 92° |
| 2026-04-20 19:48 | 42.45685 | -74.98494 | 21229 ft | 405 kts | 92° |
| 2026-04-20 19:48 | 42.45582 | -74.94698 | 20687 ft | 402 kts | 92° |
| 2026-04-20 19:49 | 42.45482 | -74.90933 | 20147 ft | 398 kts | 92° |
| 2026-04-20 19:49 | 42.45383 | -74.87214 | 19602 ft | 394 kts | 92° |
| 2026-04-20 19:49 | 42.45282 | -74.83522 | 19064 ft | 390 kts | 92° |
| 2026-04-20 19:49 | 42.45177 | -74.79863 | 18505 ft | 386 kts | 93° |
| 2026-04-20 19:50 | 42.45068 | -74.76230 | 17774 ft | 387 kts | 93° |
| 2026-04-20 19:50 | 42.44960 | -74.72583 | 17104 ft | 387 kts | 93° |
| 2026-04-20 19:50 | 42.44854 | -74.68960 | 16527 ft | 383 kts | 93° |
| 2026-04-20 19:50 | 42.44751 | -74.65365 | 15932 ft | 380 kts | 93° |
| 2026-04-20 19:51 | 42.44647 | -74.61809 | 15289 ft | 378 kts | 93° |
| 2026-04-20 19:51 | 42.44543 | -74.58269 | 14741 ft | 373 kts | 93° |
| 2026-04-20 19:51 | 42.44439 | -74.54783 | 14170 ft | 369 kts | 93° |
| 2026-04-20 19:51 | 42.44336 | -74.51341 | 13584 ft | 365 kts | 94° |
| 2026-04-20 19:52 | 42.44232 | -74.47912 | 12997 ft | 362 kts | 94° |
| 2026-04-20 19:52 | 42.44130 | -74.44526 | 12428 ft | 359 kts | 93° |
| 2026-04-20 19:52 | 42.44252 | -74.41236 | 11883 ft | 356 kts | 83° |
| 2026-04-20 19:52 | 42.44584 | -74.37930 | 11331 ft | 352 kts | 83° |
| 2026-04-20 19:53 | 42.44903 | -74.34703 | 10787 ft | 349 kts | 82° |
| 2026-04-20 19:53 | 42.45216 | -74.31492 | 10515 ft | 335 kts | 82° |
| 2026-04-20 19:53 | 42.45510 | -74.28479 | 10344 ft | 313 kts | 82° |
| 2026-04-20 19:53 | 42.45789 | -74.25587 | 10049 ft | 306 kts | 82° |
| 2026-04-20 19:54 | 42.46059 | -74.22760 | 9862 ft | 301 kts | 82° |
| 2026-04-20 19:54 | 42.46326 | -74.19951 | 9744 ft | 300 kts | 82° |
| 2026-04-20 19:54 | 42.46591 | -74.17159 | 9604 ft | 299 kts | 82° |
| 2026-04-20 19:54 | 42.46858 | -74.14369 | 9416 ft | 298 kts | 82° |
| 2026-04-20 19:55 | 42.47126 | -74.11586 | 9032 ft | 298 kts | 81° |
| 2026-04-20 19:55 | 42.47394 | -74.08798 | 8653 ft | 297 kts | 82° |
| 2026-04-20 19:55 | 42.47658 | -74.06034 | 8257 ft | 296 kts | 81° |
| 2026-04-20 19:55 | 42.47921 | -74.03268 | 7829 ft | 297 kts | 82° |
| 2026-04-20 19:56 | 42.48097 | -74.01434 | 7545 ft | 293 kts | 81° |
| 2026-04-20 19:56 | 42.48431 | -73.97855 | 7028 ft | 280 kts | 82° |
| 2026-04-20 19:56 | 42.48669 | -73.95284 | 6716 ft | 268 kts | 81° |
| 2026-04-20 19:56 | 42.48899 | -73.92822 | 6325 ft | 260 kts | 81° |
| 2026-04-20 19:57 | 42.49124 | -73.90432 | 5952 ft | 251 kts | 81° |
| 2026-04-20 19:57 | 42.49483 | -73.88174 | 5615 ft | 239 kts | 66° |
| 2026-04-20 19:57 | 42.50300 | -73.86301 | 5295 ft | 225 kts | 46° |
| 2026-04-20 19:57 | 42.51390 | -73.84862 | 4991 ft | 215 kts | 39° |
| 2026-04-20 19:58 | 42.52453 | -73.83517 | 4753 ft | 208 kts | 39° |
| 2026-04-20 19:58 | 42.53516 | -73.82165 | 4429 ft | 205 kts | 39° |
| 2026-04-20 19:58 | 42.54541 | -73.80863 | 4144 ft | 199 kts | 39° |
| 2026-04-20 19:58 | 42.55651 | -73.79913 | 3876 ft | 186 kts | 14° |
| 2026-04-20 19:59 | 42.56896 | -73.79695 | 3623 ft | 178 kts | 353° |
| 2026-04-20 19:59 | 42.58113 | -73.79761 | 3390 ft | 171 kts | 354° |
| 2026-04-20 19:59 | 42.59261 | -73.79806 | 3166 ft | 160 kts | 354° |
| 2026-04-20 19:59 | 42.60339 | -73.79849 | 2945 ft | 150 kts | 353° |
| 2026-04-20 20:00 | 42.61350 | -73.79888 | 2758 ft | 142 kts | 354° |
| 2026-04-20 20:00 | 42.62312 | -73.79928 | 2563 ft | 136 kts | 354° |
| 2026-04-20 20:00 | 42.63250 | -73.79969 | 2390 ft | 134 kts | 354° |
| 2026-04-20 20:00 | 42.64174 | -73.80009 | 2215 ft | 133 kts | 354° |
| 2026-04-20 20:01 | 42.65094 | -73.80048 | 2037 ft | 131 kts | 354° |
| 2026-04-20 20:01 | 42.66007 | -73.80086 | 1965 ft | 131 kts | 354° |
| 2026-04-20 20:01 | 42.66919 | -73.80126 | 1914 ft | 131 kts | 354° |
| 2026-04-20 20:01 | 42.67831 | -73.80167 | 1910 ft | 132 kts | 354° |
| 2026-04-20 20:02 | 42.68788 | -73.80209 | 1537 ft | 143 kts | 355° |
| 2026-04-20 20:02 | 42.69798 | -73.80249 | 1148 ft | 146 kts | 356° |
| 2026-04-20 20:02 | 42.70805 | -73.80270 | 818 ft | 145 kts | 357° |
| 2026-04-20 20:02 | 42.71791 | -73.80299 | 619 ft | 135 kts | 354° |
| 2026-04-20 20:03 | 42.72712 | -73.80354 | 453 ft | 131 kts | 355° |
| 2026-04-20 20:03 | 42.73616 | -73.80387 | 360 ft | 129 kts | 356° |
| 2026-04-20 20:03 | 42.74507 | -73.80421 | 310 ft | 127 kts | 356° |
| 2026-04-20 20:03 | 42.75294 | -73.80462 | 282 ft | 100 kts | 357° |
| 2026-04-20 20:04 | 42.75763 | -73.80494 | 294 ft | 32 kts | 357° |
| 2026-04-20 20:04 | 42.75962 | -73.80507 | 290 ft | 26 kts | 2° |
| 2026-04-20 20:04 | 42.76005 | -73.80363 | 293 ft | 11 kts | 146° |
| 2026-04-20 20:04 | 42.75992 | -73.80395 | 294 ft | 3 kts | 278° |
| 2026-04-20 20:05 | 42.75997 | -73.80420 | 294 ft | 8 kts | 284° |
| 2026-04-20 20:05 | 42.76020 | -73.80552 | 293 ft | 19 kts | 281° |
| 2026-04-20 20:05 | 42.75923 | -73.80663 | 290 ft | 26 kts | 181° |
| 2026-04-20 20:05 | 42.75714 | -73.80660 | 288 ft | 34 kts | 179° |
| 2026-04-20 20:06 | 42.75524 | -73.80653 | 287 ft | 16 kts | 178° |
| 2026-04-20 20:06 | 42.75394 | -73.80647 | 284 ft | 13 kts | 178° |
| 2026-04-20 20:06 | 42.75279 | -73.80641 | 285 ft | 20 kts | 178° |
| 2026-04-20 20:06 | 42.75117 | -73.80635 | 284 ft | 27 kts | 179° |
| 2026-04-20 20:07 | 42.74933 | -73.80630 | 285 ft | 22 kts | 179° |
| 2026-04-20 20:07 | 42.74779 | -73.80616 | 289 ft | 21 kts | 175° |
| 2026-04-20 20:07 | 42.74728 | -73.80611 | 287 ft | 0 kts | 175° |
| 2026-04-20 20:08 | 42.74723 | -73.80610 | 287 ft | 2 kts | 174° |
| 2026-04-20 20:08 | 42.74691 | -73.80605 | 288 ft | 7 kts | 173° |
| 2026-04-20 20:08 | 42.74622 | -73.80607 | 289 ft | 13 kts | 200° |
| 2026-04-20 20:09 | 42.74539 | -73.80657 | 289 ft | 8 kts | 195° |
| 2026-04-20 20:09 | 42.74512 | -73.80718 | 289 ft | 0 kts | 257° |
| 2026-04-20 20:09 | 42.74511 | -73.80748 | 288 ft | 8 kts | 269° |
| 2026-04-20 20:09 | 42.74511 | -73.80781 | 287 ft | 0 kts | 270° |
| 2026-04-20 20:10 | 42.74511 | -73.80787 | 286 ft | 1 kts | 270° |
| 2026-04-20 20:10 | 42.74511 | -73.80792 | 286 ft | 0 kts | 270° |
| 2026-04-20 20:12 | 42.74521 | -73.80787 | 286 ft | 0 kts | 294° |